Sapporo, Japón

9:50 AM JST en Noviembre 23, 2014 (GMT +0900)
New Chitose | Change Station
CLOSE
Current Station
Aeropuerto
Location: Chitose AB,
Altura: 98 ft
Estaciones meteorológicas cercanas

Alt 98 ft 42.77 °N, 141.69 °E | Updated 20 minutes ago

Partly Cloudy
Parcialmente nublado
41 ° F
Sensación térmica 32 ° F
N
18
Viento Variable Viento desde NNO

Hoy
Alta -- | Baja -- ° F
--% Posibilidad de precipitaciones
Ayer
Alta -- | Baja -- ° F
Precip. -- pul
6:36 AM 4:05 PM
Luna nueva, 0% visible
Presión 30.18 pul
Visibilidad 6.2 Millas
Nubes Baja 3000 ft
Vientos helados 32 ° F
Punto de rocío 23 ° F
Humedad 49%
Precipitaciones 0.00 pul
Espesor de la nieve No disponible.
UV 1 de una escala de 12
Polen No disponible.
Calidad del aire No disponible.
Flu Activity No disponible.
METAR RJCC 230030Z 34016KT 9999 FEW030 05/M05 Q1022 RMK 1CU030 A3020

More Conditions Fewer Conditions

Presión 30.18 pul
Visibilidad 6.2 Millas
Nubes Baja 3000 ft
Vientos helados 32 ° F
Punto de rocío 23 ° F
Humedad 49%
Precipitaciones 0.00 pul
Espesor de la nieve No disponible.
UV 1 de una escala de 12
Polen No disponible.
Calidad del aire No disponible.
Flu Activity No disponible.
METAR RJCC 230030Z 34016KT 9999 FEW030 05/M05 Q1022 RMK 1CU030 A3020

More Conditions Fewer Conditions

10-Day Weather Forecast

Almanac

Astronomía

Nov. 23, 2014 Salida Puesta
Hora real
Crepúsculo civil
Crepúsculo náutico
Crepúsculo astronómico
Luna
Horas de luz
Horas de luz
Tomorrow will be .
, % of the Moon is Illuminated

Extremos de hoy

Máximos del país Bajas del país

Community

WunderPhotos

Upload Photos

1,772,938 ¡fotos cargadas!

WunderBlogs® & News

Nearby

Calidad del aire

  Calidad del aire Índice AQ Contaminante
Not available.

Grosos de nieve

Estación Profundido Altura

Actividad de terremotos

Ciudad Distance Mag. Tiempo y dato
Magnitud mínima muestra es 2,5.

Temperaturas de aguas costeras

Lugar Temperatura

Estaciones meteorológicas cercanas